createdAt,value
2022-11-28T00:01:27.194Z,2.84
2022-11-28T00:03:56.678Z,2.74
2022-11-28T00:06:23.934Z,2.90
2022-11-28T00:08:50.862Z,2.76
2022-11-28T00:11:17.726Z,2.74
2022-11-28T00:13:44.988Z,2.91
2022-11-28T00:16:24.726Z,3.05
2022-11-28T00:18:52.490Z,3.15
2022-11-28T00:21:19.390Z,3.19
2022-11-28T00:23:54.447Z,3.22
2022-11-28T00:26:25.967Z,3.20
2022-11-28T00:28:52.879Z,3.19
2022-11-28T00:31:21.023Z,3.14
2022-11-28T00:33:49.847Z,3.05
2022-11-28T00:36:17.006Z,3.17
2022-11-28T00:38:43.954Z,3.13
2022-11-28T00:41:14.023Z,3.17
2022-11-28T00:43:41.791Z,3.02
2022-11-28T00:46:08.721Z,2.94
2022-11-28T00:48:35.524Z,3.16
2022-11-28T00:51:06.220Z,3.02
2022-11-28T00:53:32.989Z,2.98
2022-11-28T00:55:59.591Z,3.06
2022-11-28T00:58:26.157Z,2.99
2022-11-28T01:00:52.801Z,2.96
2022-11-28T01:03:19.532Z,2.94
2022-11-28T01:05:46.251Z,3.00
2022-11-28T01:08:12.912Z,2.99
2022-11-28T01:10:42.985Z,3.05
2022-11-28T01:13:10.172Z,2.91
2022-11-28T01:15:37.171Z,2.93
2022-11-28T01:18:03.856Z,2.90
2022-11-28T01:20:30.436Z,2.94
2022-11-28T01:22:56.951Z,2.96
2022-11-28T01:25:23.865Z,2.87
2022-11-28T01:27:50.652Z,2.91
2022-11-28T01:30:17.236Z,2.86
2022-11-28T01:32:43.820Z,2.77
2022-11-28T01:35:10.689Z,2.75
2022-11-28T01:37:37.164Z,2.91
2022-11-28T01:40:04.259Z,2.91
2022-11-28T01:42:30.741Z,2.96
2022-11-28T01:45:14.942Z,2.86
2022-11-28T01:47:41.665Z,2.76
2022-11-28T01:50:09.620Z,2.79
2022-11-28T01:52:37.992Z,2.98
2022-11-28T01:55:05.840Z,2.82
2022-11-28T01:57:32.797Z,2.93
2022-11-28T02:00:03.218Z,2.82
2022-11-28T02:02:33.844Z,2.82
2022-11-28T02:05:00.793Z,2.79
2022-11-28T02:07:27.348Z,2.82
2022-11-28T02:09:54.182Z,2.72
2022-11-28T02:12:23.857Z,2.61
2022-11-28T02:14:50.337Z,2.75
2022-11-28T02:17:24.274Z,2.76
2022-11-28T02:20:00.171Z,2.73
2022-11-28T02:22:35.861Z,2.54
2022-11-28T02:25:05.279Z,2.61
2022-11-28T02:27:48.372Z,2.69
2022-11-28T02:30:17.351Z,2.72
2022-11-28T02:32:49.733Z,2.74
2022-11-28T02:35:25.205Z,2.61
2022-11-28T02:38:17.548Z,2.36
2022-11-28T02:40:56.452Z,2.45
2022-11-28T02:43:22.995Z,2.77
2022-11-28T02:45:52.517Z,2.73
2022-11-28T02:48:26.731Z,2.71
2022-11-28T02:50:57.934Z,2.76
2022-11-28T02:53:26.159Z,2.66
2022-11-28T02:55:53.470Z,2.73
2022-11-28T02:58:20.128Z,2.54
2022-11-28T03:00:47.491Z,2.44
2022-11-28T03:03:33.253Z,2.50
2022-11-28T03:06:14.860Z,2.58
2022-11-28T03:08:44.154Z,2.45
2022-11-28T03:11:25.787Z,2.63
2022-11-28T03:13:52.305Z,2.50
2022-11-28T03:16:34.435Z,2.70
2022-11-28T03:19:09.813Z,2.82
2022-11-28T03:21:41.514Z,2.71
2022-11-28T03:24:15.180Z,2.61
2022-11-28T03:27:03.991Z,2.58
2022-11-28T03:29:34.284Z,2.64
2022-11-28T03:32:04.097Z,2.78
2022-11-28T03:34:37.546Z,2.65
2022-11-28T03:37:07.328Z,2.53
2022-11-28T03:39:37.209Z,2.44
2022-11-28T03:42:07.987Z,2.72
2022-11-28T03:44:45.392Z,2.47
2022-11-28T03:47:12.036Z,2.37
2022-11-28T03:49:40.611Z,2.41
2022-11-28T03:52:10.902Z,2.54
2022-11-28T03:54:46.987Z,2.39
2022-11-28T03:57:19.299Z,2.45
2022-11-28T03:59:55.558Z,2.55
2022-11-28T04:02:31.352Z,2.55
2022-11-28T04:05:12.097Z,2.34
2022-11-28T04:07:44.683Z,2.35
2022-11-28T04:10:14.341Z,2.22
2022-11-28T04:12:48.205Z,2.37
2022-11-28T04:15:21.158Z,2.26
2022-11-28T04:17:59.829Z,2.34
2022-11-28T04:20:29.224Z,2.48
2022-11-28T04:22:59.286Z,2.53
2022-11-28T04:25:26.180Z,2.49
2022-11-28T04:27:59.688Z,2.42
2022-11-28T04:30:26.314Z,2.50
2022-11-28T04:32:56.032Z,2.47
2022-11-28T04:35:31.507Z,2.51
2022-11-28T04:37:59.036Z,2.61
2022-11-28T04:40:27.619Z,2.73
2022-11-28T04:42:57.726Z,2.71
2022-11-28T04:45:30.058Z,2.72
2022-11-28T04:47:56.969Z,2.74
2022-11-28T04:50:25.435Z,2.61
2022-11-28T04:52:56.112Z,2.68
2022-11-28T04:55:22.625Z,2.78
2022-11-28T04:57:57.042Z,2.77
2022-11-28T05:00:24.058Z,2.84
2022-11-28T05:02:51.767Z,2.75
2022-11-28T05:05:20.467Z,2.78
2022-11-28T05:07:47.074Z,2.71
2022-11-28T05:10:14.188Z,2.74
2022-11-28T05:12:40.767Z,2.93
2022-11-28T05:15:07.991Z,2.91
2022-11-28T05:17:39.002Z,2.99
2022-11-28T05:20:08.738Z,2.88
2022-11-28T05:22:35.314Z,2.89
2022-11-28T05:25:01.778Z,2.80
2022-11-28T05:27:28.807Z,2.75
2022-11-28T05:29:55.355Z,2.93
2022-11-28T05:32:22.082Z,2.83
2022-11-28T05:34:48.587Z,2.90
2022-11-28T05:37:15.884Z,2.88
2022-11-28T05:39:42.802Z,2.96
2022-11-28T05:42:09.583Z,3.00
2022-11-28T05:44:36.802Z,2.91
2022-11-28T05:47:03.367Z,3.03
2022-11-28T05:49:29.822Z,2.90
2022-11-28T05:51:56.504Z,2.94
2022-11-28T05:54:23.030Z,2.92
2022-11-28T05:56:49.803Z,2.83
2022-11-28T05:59:16.297Z,2.80
2022-11-28T06:01:42.849Z,2.99
2022-11-28T06:04:09.588Z,2.93
2022-11-28T06:06:36.615Z,2.94
2022-11-28T06:09:04.163Z,2.95
2022-11-28T06:11:31.345Z,2.87
2022-11-28T06:13:58.089Z,2.84
2022-11-28T06:16:26.588Z,2.96
2022-11-28T06:18:57.913Z,2.91
2022-11-28T06:21:25.058Z,2.75
2022-11-28T06:23:54.476Z,2.81
2022-11-28T06:26:22.311Z,2.74
2022-11-28T06:28:49.301Z,2.91
2022-11-28T06:31:18.009Z,2.81
2022-11-28T06:33:44.681Z,2.76
2022-11-28T06:36:12.056Z,2.92
2022-11-28T06:38:39.125Z,2.89
2022-11-28T06:41:10.185Z,2.80
2022-11-28T06:43:36.737Z,2.79
2022-11-28T06:46:04.094Z,2.78
2022-11-28T06:48:30.767Z,2.64
2022-11-28T06:51:04.495Z,2.83
2022-11-28T06:53:31.762Z,2.76
2022-11-28T06:55:58.694Z,2.86
2022-11-28T06:58:25.317Z,2.66
2022-11-28T07:00:51.929Z,2.72
2022-11-28T07:03:18.491Z,2.65
2022-11-28T07:05:45.195Z,2.73
2022-11-28T07:08:12.013Z,2.71
2022-11-28T07:10:38.621Z,2.91
2022-11-28T07:13:05.760Z,2.87
2022-11-28T07:15:32.476Z,2.75
2022-11-28T07:17:58.988Z,2.75
2022-11-28T07:20:25.505Z,2.81
2022-11-28T07:22:52.011Z,2.70
2022-11-28T07:25:18.622Z,2.67
2022-11-28T07:27:45.101Z,2.74
2022-11-28T07:30:11.805Z,2.74
2022-11-28T07:32:41.589Z,2.79
2022-11-28T07:35:09.124Z,2.85
2022-11-28T07:37:36.442Z,2.97
2022-11-28T07:40:04.114Z,2.95
2022-11-28T07:42:30.663Z,2.79
2022-11-28T07:44:57.291Z,2.84
2022-11-28T07:47:23.849Z,2.77
2022-11-28T07:49:50.368Z,2.90
2022-11-28T07:52:16.931Z,2.91
2022-11-28T07:54:43.444Z,2.90
2022-11-28T07:57:12.669Z,2.95
2022-11-28T07:59:39.817Z,2.95
2022-11-28T08:02:06.767Z,3.01
2022-11-28T08:04:33.502Z,3.03
2022-11-28T08:07:00.096Z,3.10
2022-11-28T08:09:26.999Z,3.20
2022-11-28T08:11:53.580Z,3.16
2022-11-28T08:14:20.532Z,3.07
2022-11-28T08:16:47.263Z,3.29
2022-11-28T08:19:13.834Z,3.29
2022-11-28T08:21:40.349Z,3.31
2022-11-28T08:24:08.247Z,3.33
2022-11-28T08:26:35.303Z,3.38
2022-11-28T08:29:02.422Z,3.36
2022-11-28T08:31:32.718Z,3.30
2022-11-28T08:34:00.655Z,3.45
2022-11-28T08:36:29.336Z,3.49
2022-11-28T08:39:22.915Z,3.49
2022-11-28T08:41:43.127Z,3.57
2022-11-28T08:44:09.686Z,3.55
2022-11-28T08:46:36.786Z,3.62
2022-11-28T08:49:04.807Z,3.75
2022-11-28T08:51:31.682Z,3.71
2022-11-28T08:53:59.701Z,3.72
2022-11-28T08:56:26.920Z,3.61
2022-11-28T08:58:53.447Z,3.72
2022-11-28T09:01:21.031Z,3.82
2022-11-28T09:03:47.862Z,3.75
2022-11-28T09:06:14.798Z,3.71
2022-11-28T09:08:41.288Z,3.79
2022-11-28T09:11:09.834Z,3.77
2022-11-28T09:13:36.830Z,3.70
2022-11-28T09:16:06.132Z,3.92
2022-11-28T09:18:32.724Z,3.87
2022-11-28T09:21:00.361Z,3.99
2022-11-28T09:23:36.668Z,3.84
2022-11-28T09:26:07.562Z,3.78
2022-11-28T09:28:37.390Z,4.01
2022-11-28T09:31:05.216Z,4.08
2022-11-28T09:33:33.718Z,4.10
2022-11-28T09:36:08.095Z,4.12
2022-11-28T09:38:42.038Z,4.00
2022-11-28T09:41:30.145Z,4.10
2022-11-28T09:44:08.930Z,4.17
2022-11-28T09:46:38.333Z,3.99
2022-11-28T09:49:10.859Z,4.15
2022-11-28T09:51:43.218Z,4.15
2022-11-28T09:54:28.981Z,4.27
2022-11-28T09:56:58.896Z,4.22
2022-11-28T09:59:29.974Z,4.19
2022-11-28T10:02:08.691Z,4.26
2022-11-28T10:04:42.707Z,4.19
2022-11-28T10:07:28.211Z,4.13
2022-11-28T10:10:08.206Z,4.25
2022-11-28T10:12:34.809Z,4.36
2022-11-28T10:15:21.585Z,4.38
2022-11-28T10:17:54.555Z,4.48
2022-11-28T10:23:07.312Z,4.55
2022-11-28T10:25:35.654Z,4.47
2022-11-28T10:28:05.209Z,4.66
2022-11-28T10:30:38.621Z,4.82
2022-11-28T10:33:12.213Z,4.72
2022-11-28T10:35:56.809Z,4.63
2022-11-28T10:38:26.022Z,4.56
2022-11-28T10:41:08.152Z,4.81
2022-11-28T10:43:40.535Z,4.83
2022-11-28T10:46:07.181Z,4.89
2022-11-28T10:48:40.081Z,4.73
2022-11-28T10:51:25.032Z,5.14
2022-11-28T10:54:10.893Z,5.13
2022-11-28T10:56:44.554Z,4.99
2022-11-28T10:59:17.050Z,5.08
2022-11-28T11:01:49.811Z,5.15
2022-11-28T11:04:21.751Z,5.24
2022-11-28T11:07:20.004Z,5.26
2022-11-28T11:09:48.499Z,5.31
2022-11-28T11:12:19.454Z,5.35
2022-11-28T11:14:46.005Z,5.26
2022-11-28T11:17:28.083Z,5.54
2022-11-28T11:19:57.862Z,5.64
2022-11-28T11:22:32.442Z,5.55
2022-11-28T11:25:15.656Z,5.70
2022-11-28T11:27:49.988Z,5.57
2022-11-28T11:30:32.606Z,5.58
2022-11-28T11:33:00.782Z,5.63
2022-11-28T11:35:29.473Z,5.52
2022-11-28T11:38:19.232Z,5.55
2022-11-28T11:40:50.221Z,5.44
2022-11-28T11:43:30.204Z,5.62
2022-11-28T11:46:22.858Z,5.60
2022-11-28T11:48:51.007Z,5.40
2022-11-28T11:51:24.358Z,5.45
2022-11-28T11:54:20.804Z,5.39
2022-11-28T11:56:51.227Z,5.27
2022-11-28T12:00:15.121Z,5.26
2022-11-28T12:02:44.901Z,5.18
2022-11-28T12:05:13.428Z,5.27
2022-11-28T12:08:00.231Z,5.34
2022-11-28T12:10:28.278Z,5.26
2022-11-28T12:12:55.216Z,5.25
2022-11-28T12:15:27.948Z,5.29
2022-11-28T12:18:17.639Z,5.36
2022-11-28T12:20:44.476Z,5.17
2022-11-28T12:23:29.359Z,5.27
2022-11-28T12:26:00.894Z,5.24
2022-11-28T12:28:27.321Z,5.13
2022-11-28T12:31:02.859Z,5.32
2022-11-28T12:33:39.159Z,5.24
2022-11-28T12:36:24.561Z,5.24
2022-11-28T12:39:09.662Z,5.28
2022-11-28T12:41:51.384Z,5.45
2022-11-28T12:44:18.044Z,5.14
2022-11-28T12:46:47.857Z,5.23
2022-11-28T12:49:23.834Z,5.30
2022-11-28T12:51:59.489Z,5.23
2022-11-28T12:54:34.206Z,5.36
2022-11-28T12:57:06.474Z,5.22
2022-11-28T12:59:40.153Z,5.08
2022-11-28T13:02:26.395Z,4.93
2022-11-28T13:05:11.762Z,5.10
2022-11-28T13:07:57.364Z,5.33
2022-11-28T13:10:44.092Z,5.18
2022-11-28T13:13:17.760Z,5.22
2022-11-28T13:16:10.719Z,5.22
2022-11-28T13:18:40.061Z,5.33
2022-11-28T13:21:12.732Z,5.31
2022-11-28T13:23:47.541Z,5.39
2022-11-28T13:26:14.019Z,5.28
2022-11-28T13:28:40.876Z,5.16
2022-11-28T13:31:12.553Z,5.21
2022-11-28T13:33:48.575Z,5.29
2022-11-28T13:39:37.577Z,5.43
2022-11-28T13:42:52.327Z,5.25
2022-11-28T13:45:07.837Z,5.19
2022-11-28T13:47:37.721Z,5.33
2022-11-28T13:50:25.674Z,5.26
2022-11-28T13:52:59.806Z,5.30
2022-11-28T13:55:44.963Z,5.28
2022-11-28T13:58:31.813Z,5.22
2022-11-28T14:01:04.327Z,5.18
2022-11-28T14:03:36.593Z,5.05
2022-11-28T14:06:06.087Z,5.09
2022-11-28T14:08:36.967Z,5.04
2022-11-28T14:11:24.091Z,4.81
2022-11-28T14:14:07.238Z,4.87
2022-11-28T14:16:37.307Z,4.81
2022-11-28T14:19:16.114Z,4.62
2022-11-28T14:21:45.573Z,4.66
2022-11-28T14:24:15.980Z,4.62
2022-11-28T14:26:43.558Z,4.76
2022-11-28T14:29:21.339Z,5.05
2022-11-28T14:32:07.000Z,4.77
2022-11-28T14:34:45.487Z,4.84
2022-11-28T14:37:28.606Z,4.84
2022-11-28T14:39:56.065Z,4.78
2022-11-28T14:45:30.931Z,4.59
2022-11-28T14:48:27.089Z,4.52
2022-11-28T14:51:00.852Z,4.56
2022-11-28T14:53:34.583Z,4.66
2022-11-28T14:56:11.606Z,4.57
2022-11-28T14:58:38.468Z,4.59
2022-11-28T15:01:10.264Z,4.61
2022-11-28T15:03:39.542Z,4.55
2022-11-28T15:06:09.169Z,4.60
2022-11-28T15:08:46.113Z,4.61
2022-11-28T15:11:12.649Z,4.55
2022-11-28T15:13:39.074Z,4.46
2022-11-28T15:16:06.736Z,4.40
2022-11-28T15:18:34.054Z,4.38
2022-11-28T15:21:02.855Z,4.15
2022-11-28T15:23:30.651Z,4.45
2022-11-28T15:25:58.090Z,4.28
2022-11-28T15:28:28.923Z,4.33
2022-11-28T15:30:56.688Z,4.33
2022-11-28T15:33:24.174Z,4.37
2022-11-28T15:35:54.402Z,4.31
2022-11-28T15:38:20.960Z,4.08
2022-11-28T15:40:51.453Z,4.24
2022-11-28T15:43:18.432Z,4.05
2022-11-28T15:45:49.080Z,4.03
2022-11-28T15:48:27.742Z,4.22
2022-11-28T15:50:54.295Z,3.94
2022-11-28T15:53:21.148Z,4.09
2022-11-28T15:55:48.071Z,3.97
2022-11-28T15:58:30.319Z,3.98
2022-11-28T16:00:56.796Z,3.89
2022-11-28T16:03:25.462Z,3.93
2022-11-28T16:06:02.851Z,4.03
2022-11-28T16:08:37.037Z,4.10
2022-11-28T16:11:05.670Z,4.09
2022-11-28T16:13:33.637Z,3.98
2022-11-28T16:16:01.692Z,3.95
2022-11-28T16:18:29.183Z,3.94
2022-11-28T16:20:56.973Z,3.78
2022-11-28T16:23:34.524Z,3.97
2022-11-28T16:26:02.626Z,3.80
2022-11-28T16:28:41.498Z,3.87
2022-11-28T16:31:12.372Z,3.83
2022-11-28T16:33:43.281Z,3.80
2022-11-28T16:36:15.947Z,3.86
2022-11-28T16:38:43.486Z,3.70
2022-11-28T16:41:21.630Z,3.59
2022-11-28T16:43:50.246Z,3.58
2022-11-28T16:46:21.593Z,3.51
2022-11-28T16:48:58.230Z,3.67
2022-11-28T16:51:29.146Z,3.77
2022-11-28T16:53:57.438Z,3.76
2022-11-28T16:56:29.925Z,3.86
2022-11-28T16:59:11.679Z,3.83
2022-11-28T17:01:38.565Z,3.66
2022-11-28T17:04:05.621Z,3.74
2022-11-28T17:06:39.324Z,3.77
2022-11-28T17:09:10.762Z,3.64
2022-11-28T17:11:40.735Z,3.63
2022-11-28T17:14:13.028Z,3.59
2022-11-28T17:16:40.551Z,3.64
2022-11-28T17:19:07.775Z,3.61
2022-11-28T17:21:38.242Z,3.58
2022-11-28T17:24:05.278Z,3.48
2022-11-28T17:26:37.389Z,3.40
2022-11-28T17:29:03.981Z,3.75
2022-11-28T17:31:30.593Z,3.60
2022-11-28T17:33:57.177Z,3.48
2022-11-28T17:36:23.796Z,3.37
2022-11-28T17:38:50.452Z,3.52
2022-11-28T17:41:30.428Z,3.47
2022-11-28T17:43:57.037Z,3.26
2022-11-28T17:46:23.480Z,3.49
2022-11-28T17:48:50.052Z,3.51
2022-11-28T17:51:17.128Z,3.59
2022-11-28T17:53:43.664Z,3.54
2022-11-28T17:56:13.332Z,3.29
2022-11-28T17:58:39.903Z,3.20
2022-11-28T18:01:11.065Z,3.44
2022-11-28T18:03:38.459Z,3.66
2022-11-28T18:06:05.463Z,3.56
2022-11-28T18:08:32.045Z,3.46
2022-11-28T18:11:05.467Z,3.44
2022-11-28T18:13:32.786Z,3.34
2022-11-28T18:15:59.466Z,3.37
2022-11-28T18:18:26.120Z,3.23
2022-11-28T18:20:52.751Z,3.10
2022-11-28T18:23:19.321Z,3.38
2022-11-28T18:25:46.272Z,3.24
2022-11-28T18:28:18.444Z,3.32
2022-11-28T18:30:46.193Z,3.44
2022-11-28T18:33:13.050Z,3.20
2022-11-28T18:35:39.909Z,3.18
2022-11-28T18:38:07.709Z,3.19
2022-11-28T18:40:34.923Z,3.10
2022-11-28T18:43:05.210Z,3.19
2022-11-28T18:45:32.542Z,3.30
2022-11-28T18:48:00.502Z,3.11
2022-11-28T18:50:27.517Z,3.29
2022-11-28T18:52:54.541Z,3.13
2022-11-28T18:55:21.366Z,3.17
2022-11-28T18:57:47.845Z,3.30
2022-11-28T19:00:21.791Z,3.16
2022-11-28T19:02:48.463Z,3.32
2022-11-28T19:05:15.164Z,3.30
2022-11-28T19:07:41.770Z,3.26
2022-11-28T19:10:08.898Z,3.17
2022-11-28T19:12:35.641Z,3.11
2022-11-28T19:15:02.976Z,3.10
2022-11-28T19:17:29.842Z,3.06
2022-11-28T19:19:56.467Z,3.24
2022-11-28T19:22:23.017Z,3.16
2022-11-28T19:24:49.558Z,3.20
2022-11-28T19:27:16.085Z,3.00
2022-11-28T19:29:42.998Z,3.27
2022-11-28T19:32:10.124Z,3.27
2022-11-28T19:34:36.697Z,3.27
2022-11-28T19:37:03.238Z,3.15
2022-11-28T19:39:30.068Z,3.28
2022-11-28T19:41:57.024Z,3.22
2022-11-28T19:44:24.861Z,3.20
2022-11-28T19:46:52.853Z,3.09
2022-11-28T19:49:21.492Z,3.18
2022-11-28T19:51:48.101Z,3.08
2022-11-28T19:54:15.411Z,2.97
2022-11-28T19:56:42.022Z,3.16
2022-11-28T19:59:08.556Z,3.01
2022-11-28T20:01:35.241Z,3.12
2022-11-28T20:04:01.843Z,3.05
2022-11-28T20:06:32.451Z,3.08
2022-11-28T20:08:59.930Z,3.14
2022-11-28T20:11:28.044Z,3.28
2022-11-28T20:13:58.700Z,3.17
2022-11-28T20:16:25.571Z,3.11
2022-11-28T20:18:52.385Z,2.94
2022-11-28T20:21:19.773Z,3.27
2022-11-28T20:23:47.906Z,3.07
2022-11-28T20:26:15.130Z,3.08
2022-11-28T20:28:42.120Z,3.00
2022-11-28T20:31:17.403Z,3.03
2022-11-28T20:33:43.942Z,3.14
2022-11-28T20:36:12.171Z,2.99
2022-11-28T20:38:38.644Z,3.11
2022-11-28T20:41:06.793Z,3.11
2022-11-28T20:43:34.245Z,3.09
2022-11-28T20:46:01.798Z,3.12
2022-11-28T20:48:28.626Z,3.11
2022-11-28T20:50:55.110Z,3.05
2022-11-28T20:53:26.609Z,3.22
2022-11-28T20:56:10.657Z,3.09
2022-11-28T20:58:51.465Z,3.09
2022-11-28T21:01:36.660Z,3.29
2022-11-28T21:04:24.275Z,3.41
2022-11-28T21:06:50.820Z,3.22
2022-11-28T21:09:21.062Z,3.37
2022-11-28T21:11:57.463Z,3.29
2022-11-28T21:14:30.291Z,3.23
2022-11-28T21:16:58.247Z,3.28
2022-11-28T21:19:40.312Z,3.29
2022-11-28T21:22:17.537Z,3.28
2022-11-28T21:24:56.375Z,3.17
2022-11-28T21:27:25.974Z,3.09
2022-11-28T21:29:58.930Z,3.28
2022-11-28T21:32:35.788Z,3.22
2022-11-28T21:35:04.528Z,3.33
2022-11-28T21:37:39.166Z,3.09
2022-11-28T21:40:09.263Z,3.05
2022-11-28T21:42:44.800Z,3.05
2022-11-28T21:45:11.291Z,3.22
2022-11-28T21:47:37.802Z,3.09
2022-11-28T21:50:04.769Z,3.04
2022-11-28T21:52:38.898Z,3.18
2022-11-28T21:55:21.777Z,3.23
2022-11-28T21:57:57.080Z,3.17
2022-11-28T22:00:57.488Z,3.34
2022-11-28T22:03:24.450Z,3.26
2022-11-28T22:05:52.813Z,3.28
2022-11-28T22:08:20.372Z,3.20
2022-11-28T22:10:47.172Z,3.08
2022-11-28T22:13:13.698Z,3.13
2022-11-28T22:15:41.616Z,3.26
2022-11-28T22:18:08.270Z,3.31
2022-11-28T22:20:38.726Z,3.11
2022-11-28T22:23:08.300Z,3.14
2022-11-28T22:25:34.925Z,3.02
2022-11-28T22:28:01.644Z,3.15
2022-11-28T22:30:28.341Z,3.23
2022-11-28T22:32:54.869Z,2.99
2022-11-28T22:35:21.410Z,3.14
2022-11-28T22:37:48.161Z,3.09
2022-11-28T22:40:15.083Z,3.09
2022-11-28T22:42:41.569Z,3.11
2022-11-28T22:45:08.376Z,3.06
2022-11-28T22:47:35.218Z,2.98
2022-11-28T22:50:01.805Z,3.03
2022-11-28T22:52:29.269Z,3.09
2022-11-28T22:54:55.902Z,2.93
2022-11-28T22:57:25.034Z,3.01
2022-11-28T22:59:51.526Z,2.97
2022-11-28T23:02:18.219Z,3.02
2022-11-28T23:04:45.108Z,3.10
2022-11-28T23:07:11.690Z,3.09
2022-11-28T23:09:38.229Z,3.19
2022-11-28T23:12:04.941Z,3.20
2022-11-28T23:14:31.524Z,3.01
2022-11-28T23:16:58.224Z,3.06
2022-11-28T23:19:24.801Z,3.00
2022-11-28T23:21:51.324Z,3.07
2022-11-28T23:24:18.962Z,3.05
2022-11-28T23:26:45.760Z,2.98
2022-11-28T23:29:12.660Z,3.02
2022-11-28T23:31:40.996Z,3.08
2022-11-28T23:34:08.325Z,3.01
2022-11-28T23:36:43.101Z,2.91
2022-11-28T23:39:11.349Z,2.88
2022-11-28T23:41:37.854Z,2.70
2022-11-28T23:44:04.701Z,2.84
2022-11-28T23:46:31.245Z,2.70
2022-11-28T23:48:57.914Z,2.68
2022-11-28T23:51:25.880Z,2.58
2022-11-28T23:53:52.514Z,2.60
2022-11-28T23:56:20.369Z,2.66
2022-11-28T23:58:47.185Z,2.60
